createdAt,value
2023-05-15T00:03:06.743Z,98165.73
2023-05-15T00:08:09.392Z,98162.60
2023-05-15T00:13:11.059Z,98155.48
2023-05-15T00:18:12.802Z,98144.23
2023-05-15T00:23:14.567Z,98136.98
2023-05-15T00:28:16.296Z,98126.11
2023-05-15T00:33:18.090Z,98110.59
2023-05-15T00:38:19.752Z,98096.30
2023-05-15T00:43:21.997Z,98083.86
2023-05-15T00:48:25.387Z,98082.90
2023-05-15T00:53:28.404Z,98086.19
2023-05-15T00:58:32.089Z,98083.59
2023-05-15T01:03:33.852Z,98078.30
2023-05-15T01:08:49.746Z,98066.69
2023-05-15T01:13:51.405Z,98051.69
2023-05-15T01:18:53.307Z,98057.70
2023-05-15T01:24:12.403Z,98057.19
2023-05-15T01:29:26.710Z,98052.42
2023-05-15T01:34:34.337Z,98050.42
2023-05-15T01:39:38.981Z,98054.48
2023-05-15T01:44:46.286Z,98049.15
2023-05-15T01:49:51.070Z,98042.27
2023-05-15T01:54:54.773Z,98042.27
2023-05-15T01:59:58.737Z,98048.41
2023-05-15T02:05:01.526Z,98049.17
2023-05-15T02:10:04.732Z,98048.23
2023-05-15T02:15:10.285Z,98050.17
2023-05-15T02:20:12.307Z,98054.36
2023-05-15T02:25:14.150Z,98043.28
2023-05-15T02:30:57.451Z,98029.04
2023-05-15T02:36:04.690Z,98023.00
2023-05-15T02:41:07.870Z,98021.53
2023-05-15T02:46:12.131Z,98014.83
2023-05-15T02:51:14.310Z,98007.71
2023-05-15T02:56:16.054Z,98002.54
2023-05-15T03:01:17.820Z,97998.73
2023-05-15T03:06:19.548Z,98000.80
2023-05-15T03:11:21.451Z,97996.95
2023-05-15T03:16:23.274Z,97994.08
2023-05-15T03:21:25.028Z,97986.35
2023-05-15T03:26:27.194Z,97984.13
2023-05-15T03:31:29.021Z,97986.38
2023-05-15T03:36:31.598Z,97974.02
2023-05-15T03:41:33.254Z,97964.17
2023-05-15T03:46:35.578Z,97954.95
2023-05-15T03:51:37.528Z,97950.34
2023-05-15T03:56:39.258Z,97951.19
2023-05-15T04:01:54.812Z,97949.60
2023-05-15T04:07:07.521Z,97950.42
2023-05-15T04:12:09.305Z,97953.23
2023-05-15T04:17:11.015Z,97954.63
2023-05-15T04:22:13.099Z,97956.35
2023-05-15T04:27:14.794Z,97955.58
2023-05-15T04:32:16.526Z,97948.73
2023-05-15T04:37:18.617Z,97941.25
2023-05-15T04:42:20.798Z,97935.83
2023-05-15T04:47:22.556Z,97926.68
2023-05-15T04:52:24.655Z,97922.25
2023-05-15T04:57:26.734Z,97919.80
2023-05-15T05:02:28.512Z,97920.27
2023-05-15T05:07:30.614Z,97919.02
2023-05-15T05:12:32.365Z,97913.38
2023-05-15T05:17:34.187Z,97910.48
2023-05-15T05:22:35.971Z,97900.11
2023-05-15T05:27:37.688Z,97896.56
2023-05-15T05:32:39.345Z,97898.91
2023-05-15T05:37:41.540Z,97901.78
2023-05-15T05:42:43.655Z,97900.29
2023-05-15T05:47:45.627Z,97899.57
2023-05-15T05:52:47.345Z,97891.32
2023-05-15T05:57:49.089Z,97895.45
2023-05-15T06:02:56.618Z,97892.30
2023-05-15T06:07:59.896Z,97891.34
2023-05-15T06:13:01.682Z,97889.34
2023-05-15T06:18:03.623Z,97880.34
2023-05-15T06:23:05.582Z,97878.35
2023-05-15T06:28:07.385Z,97880.74
2023-05-15T06:33:09.152Z,97883.63
2023-05-15T06:38:10.972Z,97882.73
2023-05-15T06:43:12.769Z,97881.29
2023-05-15T06:48:14.508Z,97880.58
2023-05-15T06:53:17.733Z,97878.70
2023-05-15T06:58:19.434Z,97884.67
2023-05-15T07:03:21.179Z,97879.37
2023-05-15T07:08:22.820Z,97880.34
2023-05-15T07:13:34.806Z,97883.20
2023-05-15T07:18:36.723Z,97882.55
2023-05-15T07:23:38.462Z,97886.11
2023-05-15T07:28:40.142Z,97871.05
2023-05-15T07:33:41.763Z,97874.90
2023-05-15T07:38:43.443Z,97875.09
2023-05-15T07:43:45.097Z,97871.30
2023-05-15T07:48:46.906Z,97874.05
2023-05-15T07:53:48.570Z,97871.45
2023-05-15T07:58:50.299Z,97874.58
2023-05-15T08:03:52.163Z,97878.50
2023-05-15T08:08:53.933Z,97879.79
2023-05-15T08:13:55.650Z,97884.91
2023-05-15T08:19:01.645Z,97884.30
2023-05-15T08:24:03.808Z,97890.13
2023-05-15T08:29:05.553Z,97891.33
2023-05-15T08:34:10.789Z,97893.84
2023-05-15T08:39:12.988Z,97895.94
2023-05-15T08:44:14.773Z,97892.80
2023-05-15T08:49:42.387Z,97891.06
2023-05-15T08:54:45.468Z,97890.36
2023-05-15T08:59:51.368Z,97893.91
2023-05-15T09:04:53.221Z,97889.93
2023-05-15T09:09:56.996Z,97889.55
2023-05-15T09:15:09.790Z,97891.77
2023-05-15T09:20:34.644Z,97894.61
2023-05-15T09:25:41.628Z,97900.49
2023-05-15T09:30:43.408Z,97894.92
2023-05-15T09:35:46.181Z,97896.25
2023-05-15T09:40:47.874Z,97902.29
2023-05-15T09:45:49.669Z,97905.75
2023-05-15T09:50:51.995Z,97903.98
2023-05-15T09:55:54.588Z,97902.06
2023-05-15T10:00:59.618Z,97905.93
2023-05-15T10:06:03.411Z,97905.16
2023-05-15T10:11:06.543Z,97904.67
2023-05-15T10:16:08.414Z,97912.27
2023-05-15T10:21:10.411Z,97914.23
2023-05-15T10:26:18.694Z,97916.86
2023-05-15T10:31:21.912Z,97925.79
2023-05-15T10:36:24.790Z,97921.67
2023-05-15T10:41:27.318Z,97919.45
2023-05-15T10:46:31.708Z,97912.33
2023-05-15T10:51:36.098Z,97910.96
2023-05-15T10:56:39.472Z,97905.94
2023-05-15T11:01:42.120Z,97899.05
2023-05-15T11:06:46.596Z,97901.33
2023-05-15T11:11:51.320Z,97895.36
2023-05-15T11:16:53.637Z,97893.04
2023-05-15T11:22:18.800Z,97884.62
2023-05-15T11:27:26.082Z,97876.34
2023-05-15T11:32:33.407Z,97867.45
2023-05-15T11:37:38.790Z,97857.98
2023-05-15T11:42:41.752Z,97847.41
2023-05-15T11:47:45.430Z,97846.77
2023-05-15T11:52:49.721Z,97847.15
2023-05-15T11:57:51.629Z,97848.25
2023-05-15T12:02:53.726Z,97847.61
2023-05-15T12:07:55.604Z,97853.52
2023-05-15T12:12:58.849Z,97836.38
2023-05-15T12:18:03.579Z,97848.52
2023-05-15T12:23:08.094Z,97850.50
2023-05-15T12:28:11.766Z,97848.61
2023-05-15T12:33:13.957Z,97841.44
2023-05-15T12:38:18.678Z,97845.42
2023-05-15T12:43:23.651Z,97845.50
2023-05-15T12:48:32.703Z,97848.85
2023-05-15T12:53:34.923Z,97852.56
2023-05-15T12:58:37.399Z,97859.08
2023-05-15T13:03:39.176Z,97864.77
2023-05-15T13:08:41.982Z,97851.95
2023-05-15T13:13:45.359Z,97854.02
2023-05-15T13:18:47.179Z,97860.25
2023-05-15T13:23:49.351Z,97862.31
2023-05-15T13:28:51.056Z,97864.62
2023-05-15T13:33:52.801Z,97861.84
2023-05-15T13:38:54.511Z,97862.11
2023-05-15T13:43:56.178Z,97859.73
2023-05-15T13:48:57.793Z,97855.92
2023-05-15T13:53:59.467Z,97857.67
2023-05-15T13:59:01.191Z,97864.00
2023-05-15T14:04:03.859Z,97875.79
2023-05-15T14:09:07.424Z,97879.17
2023-05-15T14:14:09.048Z,97867.30
2023-05-15T14:19:10.769Z,97869.48
2023-05-15T14:24:12.494Z,97878.39
2023-05-15T14:29:14.458Z,97891.23
2023-05-15T14:34:17.004Z,97897.52
2023-05-15T14:39:18.971Z,97909.60
2023-05-15T14:44:20.808Z,97914.20
2023-05-15T14:49:22.481Z,97918.98
2023-05-15T14:54:24.172Z,97917.02
2023-05-15T14:59:27.680Z,97908.52
2023-05-15T15:04:34.184Z,97903.39
2023-05-15T15:09:35.956Z,97908.67
2023-05-15T15:14:37.615Z,97909.73
2023-05-15T15:19:39.426Z,97901.13
2023-05-15T15:24:41.047Z,97908.11
2023-05-15T15:29:42.697Z,97912.83
2023-05-15T15:34:44.393Z,97903.83
2023-05-15T15:39:46.074Z,97910.73
2023-05-15T15:44:47.895Z,97905.95
2023-05-15T15:49:53.251Z,97914.10
2023-05-15T15:54:54.987Z,97925.03
2023-05-15T15:59:56.629Z,97935.82
2023-05-15T16:04:58.539Z,97925.98
2023-05-15T16:10:11.883Z,97921.15
2023-05-15T16:15:23.102Z,97922.67
2023-05-15T16:20:26.219Z,97924.17
2023-05-15T16:25:28.122Z,97923.70
2023-05-15T16:30:44.325Z,97918.70
2023-05-15T16:35:51.904Z,97920.71
2023-05-15T16:40:53.559Z,97932.96
2023-05-15T16:45:55.390Z,97937.38
2023-05-15T16:50:57.178Z,97945.33
2023-05-15T16:55:58.958Z,97949.06
2023-05-15T17:01:01.197Z,97959.11
2023-05-15T17:06:02.906Z,97960.92
2023-05-15T17:11:05.466Z,97970.02
2023-05-15T17:16:08.749Z,97969.59
2023-05-15T17:21:11.054Z,97979.80
2023-05-15T17:26:12.667Z,97991.65
2023-05-15T17:31:14.319Z,98006.36
2023-05-15T17:36:15.945Z,98007.50
2023-05-15T17:41:18.347Z,98023.52
2023-05-15T17:46:20.402Z,98034.31
2023-05-15T17:51:22.081Z,98040.14
2023-05-15T17:56:23.759Z,98043.55
2023-05-15T18:01:25.558Z,98056.67
2023-05-15T18:06:28.124Z,98063.19
2023-05-15T18:11:29.798Z,98066.67
2023-05-15T18:16:32.722Z,98069.17
2023-05-15T18:21:37.018Z,98076.77
2023-05-15T18:26:39.663Z,98076.10
2023-05-15T18:31:41.373Z,98079.64
2023-05-15T18:36:43.052Z,98088.83
2023-05-15T18:41:44.711Z,98105.91
2023-05-15T18:46:46.359Z,98103.80
2023-05-15T18:51:48.159Z,98108.66
2023-05-15T18:56:49.889Z,98123.69
2023-05-15T19:01:53.696Z,98133.73
2023-05-15T19:06:55.671Z,98141.20
2023-05-15T19:12:03.490Z,98153.39
2023-05-15T19:17:05.471Z,98160.33
2023-05-15T19:22:07.371Z,98163.50
2023-05-15T19:27:09.125Z,98166.98
2023-05-15T19:32:10.936Z,98166.23
2023-05-15T19:37:12.631Z,98169.94
2023-05-15T19:42:14.277Z,98161.52
2023-05-15T19:47:15.953Z,98155.87
2023-05-15T19:52:19.283Z,98156.13
2023-05-15T19:57:20.985Z,98157.65
2023-05-15T20:02:23.182Z,98161.70
2023-05-15T20:07:25.122Z,98159.19
2023-05-15T20:12:26.784Z,98149.33
2023-05-15T20:17:28.482Z,98154.09
2023-05-15T20:22:30.581Z,98166.86
2023-05-15T20:27:32.657Z,98171.20
2023-05-15T20:32:34.441Z,98167.45
2023-05-15T20:37:36.508Z,98168.89
2023-05-15T20:42:38.750Z,98169.73
2023-05-15T20:47:40.969Z,98178.88
2023-05-15T20:52:42.821Z,98180.48
2023-05-15T20:57:46.322Z,98181.94
2023-05-15T21:02:48.075Z,98182.83
2023-05-15T21:07:50.299Z,98178.95
2023-05-15T21:12:52.897Z,98181.08
2023-05-15T21:17:54.577Z,98187.83
2023-05-15T21:22:56.228Z,98192.87
2023-05-15T21:27:58.982Z,98197.72
2023-05-15T21:33:01.864Z,98188.66
2023-05-15T21:38:03.669Z,98194.98
2023-05-15T21:43:06.129Z,98203.09
2023-05-15T21:48:09.922Z,98206.24
2023-05-15T21:53:11.665Z,98204.62
2023-05-15T21:58:13.308Z,98205.02
2023-05-15T22:03:15.051Z,98208.98
2023-05-15T22:08:17.022Z,98214.20
2023-05-15T22:13:18.684Z,98218.37
2023-05-15T22:18:21.282Z,98220.63
2023-05-15T22:23:22.977Z,98221.14
2023-05-15T22:28:24.875Z,98226.28
2023-05-15T22:33:27.152Z,98233.48
2023-05-15T22:38:29.341Z,98225.79
2023-05-15T22:43:31.498Z,98236.08
2023-05-15T22:48:34.032Z,98242.09
2023-05-15T22:53:35.787Z,98232.02
2023-05-15T22:58:37.481Z,98227.93
2023-05-15T23:03:39.184Z,98229.88
2023-05-15T23:08:41.826Z,98232.63
2023-05-15T23:13:50.777Z,98239.13
2023-05-15T23:18:52.979Z,98240.30
2023-05-15T23:23:55.050Z,98251.27
2023-05-15T23:28:56.722Z,98247.73
2023-05-15T23:33:58.351Z,98246.75
2023-05-15T23:39:00.558Z,98247.42
2023-05-15T23:44:02.962Z,98248.95
2023-05-15T23:49:06.633Z,98245.20
2023-05-15T23:54:08.646Z,98247.62
2023-05-15T23:59:10.468Z,98254.13
